createdAt,value
2023-07-02T00:00:16.416Z,18.81
2023-07-02T00:02:44.068Z,18.86
2023-07-02T00:05:11.977Z,18.97
2023-07-02T00:07:39.709Z,19.08
2023-07-02T00:10:07.742Z,18.99
2023-07-02T00:12:35.415Z,19.06
2023-07-02T00:15:03.402Z,19.06
2023-07-02T00:17:34.514Z,19.11
2023-07-02T00:20:10.033Z,19.16
2023-07-02T00:22:38.069Z,19.15
2023-07-02T00:25:05.833Z,19.14
2023-07-02T00:27:33.513Z,19.28
2023-07-02T00:30:01.108Z,19.30
2023-07-02T00:32:35.647Z,19.33
2023-07-02T00:35:03.336Z,19.34
2023-07-02T00:37:32.441Z,19.37
2023-07-02T00:40:00.319Z,19.37
2023-07-02T00:42:30.800Z,19.37
2023-07-02T00:45:04.074Z,19.40
2023-07-02T00:47:36.545Z,19.46
2023-07-02T00:50:04.604Z,19.55
2023-07-02T00:52:35.463Z,19.60
2023-07-02T00:55:04.321Z,19.74
2023-07-02T00:57:34.707Z,19.68
2023-07-02T01:00:02.887Z,19.96
2023-07-02T01:02:35.678Z,20.02
2023-07-02T01:05:03.691Z,20.16
2023-07-02T01:07:33.359Z,20.20
2023-07-02T01:10:01.115Z,20.24
2023-07-02T01:12:31.897Z,20.35
2023-07-02T01:15:04.085Z,20.43
2023-07-02T01:17:43.168Z,20.39
2023-07-02T01:20:12.481Z,20.57
2023-07-02T01:22:40.167Z,20.57
2023-07-02T01:25:10.584Z,20.63
2023-07-02T01:27:38.957Z,20.72
2023-07-02T01:30:10.583Z,20.82
2023-07-02T01:32:40.202Z,20.83
2023-07-02T01:35:08.961Z,20.98
2023-07-02T01:37:38.813Z,21.08
2023-07-02T01:40:12.114Z,21.17
2023-07-02T01:42:40.585Z,21.08
2023-07-02T01:45:08.933Z,21.14
2023-07-02T01:47:36.673Z,21.06
2023-07-02T01:50:06.503Z,21.08
2023-07-02T01:52:35.135Z,21.23
2023-07-02T01:55:04.032Z,21.34
2023-07-02T01:57:32.987Z,21.37
2023-07-02T02:00:00.684Z,21.45
2023-07-02T02:02:28.484Z,21.55
2023-07-02T02:04:58.055Z,21.62
2023-07-02T02:07:25.776Z,21.63
2023-07-02T02:09:53.392Z,21.70
2023-07-02T02:12:21.368Z,21.77
2023-07-02T02:14:49.535Z,21.81
2023-07-02T02:17:17.529Z,21.85
2023-07-02T02:19:45.445Z,21.89
2023-07-02T02:22:13.040Z,21.93
2023-07-02T02:24:41.222Z,22.03
2023-07-02T02:27:08.904Z,22.19
2023-07-02T02:29:36.602Z,22.31
2023-07-02T02:32:05.134Z,22.42
2023-07-02T02:34:33.369Z,22.49
2023-07-02T02:37:01.922Z,22.47
2023-07-02T02:39:29.591Z,22.52
2023-07-02T02:41:57.400Z,22.68
2023-07-02T02:44:25.112Z,22.86
2023-07-02T02:46:52.823Z,23.03
2023-07-02T02:49:20.423Z,23.16
2023-07-02T02:51:48.139Z,23.32
2023-07-02T02:54:15.893Z,23.44
2023-07-02T02:56:44.459Z,23.54
2023-07-02T02:59:13.522Z,23.73
2023-07-02T03:01:42.273Z,23.85
2023-07-02T03:04:10.061Z,24.00
2023-07-02T03:06:37.670Z,24.25
2023-07-02T03:09:05.289Z,24.80
2023-07-02T03:11:32.950Z,25.74
2023-07-02T03:14:00.697Z,26.80
2023-07-02T03:16:28.334Z,27.75
2023-07-02T03:18:55.912Z,28.42
2023-07-02T03:21:23.513Z,29.03
2023-07-02T03:23:51.105Z,29.73
2023-07-02T03:26:18.867Z,30.22
2023-07-02T03:28:46.436Z,31.04
2023-07-02T03:31:14.192Z,32.00
2023-07-02T03:33:42.046Z,31.88
2023-07-02T03:36:09.632Z,31.63
2023-07-02T03:38:37.226Z,31.64
2023-07-02T03:41:04.763Z,31.77
2023-07-02T03:43:32.468Z,32.06
2023-07-02T03:46:00.160Z,31.97
2023-07-02T03:48:27.986Z,31.58
2023-07-02T03:50:55.549Z,31.12
2023-07-02T03:53:23.153Z,30.86
2023-07-02T03:55:50.809Z,30.70
2023-07-02T03:58:18.411Z,30.60
2023-07-02T04:00:46.115Z,30.85
2023-07-02T04:03:13.917Z,31.47
2023-07-02T04:05:41.507Z,32.04
2023-07-02T04:08:09.045Z,32.95
2023-07-02T04:10:36.894Z,33.82
2023-07-02T04:13:04.404Z,34.42
2023-07-02T04:15:33.522Z,34.99
2023-07-02T04:18:01.407Z,35.79
2023-07-02T04:20:29.898Z,36.01
2023-07-02T04:22:57.415Z,36.53
2023-07-02T04:25:36.674Z,36.83
2023-07-02T04:28:12.645Z,37.24
2023-07-02T04:30:40.640Z,36.83
2023-07-02T04:33:08.187Z,37.52
2023-07-02T04:35:35.900Z,37.69
2023-07-02T04:38:04.632Z,37.63
2023-07-02T04:40:32.184Z,37.24
2023-07-02T04:42:59.875Z,36.82
2023-07-02T04:45:28.527Z,36.89
2023-07-02T04:47:56.273Z,36.92
2023-07-02T04:50:23.853Z,36.97
2023-07-02T04:52:51.472Z,37.14
2023-07-02T04:55:19.061Z,37.64
2023-07-02T04:57:47.512Z,38.16
2023-07-02T05:00:15.860Z,38.86
2023-07-02T05:02:43.490Z,39.51
2023-07-02T05:05:11.157Z,39.96
2023-07-02T05:07:38.754Z,40.22
2023-07-02T05:10:06.735Z,40.53
2023-07-02T05:12:34.322Z,40.72
2023-07-02T05:15:02.104Z,41.02
2023-07-02T05:17:36.136Z,41.50
2023-07-02T05:20:08.596Z,41.86
2023-07-02T05:22:35.972Z,41.69
2023-07-02T05:25:03.453Z,42.14
2023-07-02T05:27:33.159Z,42.27
2023-07-02T05:30:00.722Z,42.05
2023-07-02T05:32:28.722Z,41.84
2023-07-02T05:34:56.256Z,41.17
2023-07-02T05:37:24.748Z,40.79
2023-07-02T05:39:52.321Z,40.57
2023-07-02T05:42:19.882Z,40.62
2023-07-02T05:44:47.567Z,40.69
2023-07-02T05:47:15.110Z,40.95
2023-07-02T05:49:44.220Z,41.48
2023-07-02T05:52:11.846Z,42.15
2023-07-02T05:54:42.986Z,42.60
2023-07-02T05:57:10.659Z,42.89
2023-07-02T05:59:39.577Z,43.33
2023-07-02T06:02:08.010Z,43.57
2023-07-02T06:04:35.721Z,43.86
2023-07-02T06:07:03.461Z,44.12
2023-07-02T06:09:31.310Z,43.93
2023-07-02T06:11:59.024Z,43.96
2023-07-02T06:14:27.143Z,44.17
2023-07-02T06:16:56.934Z,43.96
2023-07-02T06:19:24.766Z,43.55
2023-07-02T06:21:52.361Z,42.75
2023-07-02T06:24:20.214Z,41.98
2023-07-02T06:26:47.854Z,41.42
2023-07-02T06:29:15.478Z,40.45
2023-07-02T06:31:43.119Z,39.20
2023-07-02T06:34:11.141Z,37.80
2023-07-02T06:36:38.757Z,37.02
2023-07-02T06:39:06.395Z,35.89
2023-07-02T06:41:33.927Z,35.62
2023-07-02T06:44:01.495Z,35.75
2023-07-02T06:46:29.748Z,36.57
2023-07-02T06:48:58.028Z,37.29
2023-07-02T06:51:27.466Z,37.27
2023-07-02T06:53:55.067Z,37.07
2023-07-02T06:56:23.096Z,37.62
2023-07-02T06:58:50.937Z,37.90
2023-07-02T07:01:18.524Z,37.71
2023-07-02T07:03:46.242Z,36.75
2023-07-02T07:06:14.136Z,36.77
2023-07-02T07:08:41.774Z,35.88
2023-07-02T07:11:09.382Z,35.93
2023-07-02T07:13:37.021Z,36.42
2023-07-02T07:16:04.920Z,35.79
2023-07-02T07:18:33.406Z,35.47
2023-07-02T07:21:01.562Z,35.53
2023-07-02T07:23:29.359Z,36.20
2023-07-02T07:25:56.932Z,36.81
2023-07-02T07:28:24.531Z,37.11
2023-07-02T07:30:52.484Z,37.16
2023-07-02T07:33:20.282Z,37.04
2023-07-02T07:35:47.972Z,37.11
2023-07-02T07:38:16.095Z,36.61
2023-07-02T07:40:46.988Z,36.69
2023-07-02T07:43:14.675Z,36.66
2023-07-02T07:45:42.310Z,36.86
2023-07-02T07:48:09.998Z,36.88
2023-07-02T07:50:37.727Z,37.00
2023-07-02T07:53:05.350Z,37.14
2023-07-02T07:55:33.043Z,36.93
2023-07-02T07:58:00.622Z,37.13
2023-07-02T08:00:28.481Z,37.20
2023-07-02T08:02:57.079Z,37.15
2023-07-02T08:05:24.906Z,37.10
2023-07-02T08:07:52.673Z,37.08
2023-07-02T08:10:20.744Z,37.27
2023-07-02T08:12:49.036Z,37.20
2023-07-02T08:15:16.806Z,37.19
2023-07-02T08:17:44.423Z,37.23
2023-07-02T08:20:13.253Z,37.04
2023-07-02T08:22:41.804Z,36.96
2023-07-02T08:25:09.712Z,36.80
2023-07-02T08:27:37.501Z,36.61
2023-07-02T08:30:06.006Z,36.60
2023-07-02T08:32:34.926Z,36.49
2023-07-02T08:35:02.922Z,36.43
2023-07-02T08:37:32.583Z,36.49
2023-07-02T08:40:00.363Z,36.06
2023-07-02T08:42:30.856Z,35.97
2023-07-02T08:45:00.956Z,36.15
2023-07-02T08:47:32.839Z,35.80
2023-07-02T08:50:00.615Z,35.50
2023-07-02T08:52:28.937Z,35.48
2023-07-02T08:54:56.463Z,35.45
2023-07-02T08:57:24.116Z,35.32
2023-07-02T08:59:53.094Z,35.32
2023-07-02T09:02:31.884Z,35.43
2023-07-02T09:05:04.297Z,35.25
2023-07-02T09:07:44.651Z,34.99
2023-07-02T09:10:12.280Z,34.99
2023-07-02T09:12:41.179Z,34.87
2023-07-02T09:15:09.576Z,34.74
2023-07-02T09:17:38.470Z,34.59
2023-07-02T09:20:09.873Z,34.54
2023-07-02T09:22:38.726Z,34.49
2023-07-02T09:25:06.898Z,34.42
2023-07-02T09:27:37.127Z,34.42
2023-07-02T09:30:14.105Z,34.56
2023-07-02T09:32:41.969Z,34.25
2023-07-02T09:35:10.049Z,34.16
2023-07-02T09:37:38.186Z,34.08
2023-07-02T09:40:08.010Z,34.11
2023-07-02T09:42:37.145Z,34.03
2023-07-02T09:45:08.974Z,33.87
2023-07-02T09:47:47.012Z,33.90
2023-07-02T09:50:17.566Z,33.78
2023-07-02T09:52:47.358Z,33.64
2023-07-02T09:55:16.738Z,33.55
2023-07-02T09:57:47.707Z,33.60
2023-07-02T10:00:16.845Z,33.41
2023-07-02T10:02:50.961Z,33.50
2023-07-02T10:05:31.562Z,33.58
2023-07-02T10:08:00.666Z,33.28
2023-07-02T10:10:29.759Z,33.17
2023-07-02T10:12:57.943Z,33.10
2023-07-02T10:15:30.963Z,33.16
2023-07-02T10:18:01.539Z,32.99
2023-07-02T10:20:35.330Z,33.12
2023-07-02T10:23:03.976Z,32.92
2023-07-02T10:25:33.654Z,32.97
2023-07-02T10:28:02.076Z,32.99
2023-07-02T10:30:38.424Z,32.76
2023-07-02T10:33:16.159Z,32.67
2023-07-02T10:35:48.524Z,32.61
2023-07-02T10:38:24.148Z,32.04
2023-07-02T10:41:00.592Z,31.11
2023-07-02T10:43:34.024Z,30.45
2023-07-02T10:46:02.770Z,30.24
2023-07-02T10:48:31.130Z,30.50
2023-07-02T10:50:58.962Z,30.57
2023-07-02T10:53:26.691Z,29.78
2023-07-02T10:55:59.392Z,29.50
2023-07-02T10:58:27.093Z,29.73
2023-07-02T11:00:54.948Z,29.29
2023-07-02T11:03:24.998Z,30.27
2023-07-02T11:05:53.666Z,30.62
2023-07-02T11:08:26.171Z,30.77
2023-07-02T11:11:10.912Z,30.30
2023-07-02T11:13:51.118Z,30.61
2023-07-02T11:16:31.066Z,30.79
2023-07-02T11:19:12.901Z,30.91
2023-07-02T11:21:51.213Z,30.83
2023-07-02T11:24:38.164Z,31.09
2023-07-02T11:27:09.467Z,30.99
2023-07-02T11:29:38.165Z,31.05
2023-07-02T11:32:10.925Z,30.74
2023-07-02T11:34:39.850Z,30.50
2023-07-02T11:37:08.177Z,30.33
2023-07-02T11:39:35.810Z,30.17
2023-07-02T11:42:03.501Z,29.98
2023-07-02T11:44:31.061Z,30.22
2023-07-02T11:46:58.931Z,30.19
2023-07-02T11:49:26.639Z,30.24
2023-07-02T11:51:54.292Z,30.26
2023-07-02T11:54:22.018Z,30.27
2023-07-02T11:56:49.718Z,30.06
2023-07-02T11:59:17.345Z,30.15
2023-07-02T12:01:45.038Z,29.70
2023-07-02T12:04:14.153Z,29.47
2023-07-02T12:06:41.912Z,29.26
2023-07-02T12:09:09.595Z,29.23
2023-07-02T12:11:37.330Z,29.27
2023-07-02T12:14:04.885Z,29.22
2023-07-02T12:16:32.649Z,29.08
2023-07-02T12:19:00.392Z,28.87
2023-07-02T12:21:28.980Z,29.00
2023-07-02T12:23:57.076Z,29.03
2023-07-02T12:26:24.761Z,29.00
2023-07-02T12:28:52.403Z,28.78
2023-07-02T12:31:20.051Z,28.53
2023-07-02T12:33:47.722Z,28.65
2023-07-02T12:36:15.506Z,28.70
2023-07-02T12:38:43.039Z,29.17
2023-07-02T12:41:10.842Z,28.91
2023-07-02T12:43:38.471Z,28.67
2023-07-02T12:46:07.841Z,28.54
2023-07-02T12:48:35.475Z,28.49
2023-07-02T12:51:03.131Z,28.13
2023-07-02T12:53:30.793Z,28.01
2023-07-02T12:55:58.334Z,27.97
2023-07-02T12:58:26.002Z,28.18
2023-07-02T13:00:53.779Z,28.06
2023-07-02T13:03:22.073Z,27.84
2023-07-02T13:05:50.267Z,27.65
2023-07-02T13:08:18.387Z,27.55
2023-07-02T13:10:46.151Z,27.43
2023-07-02T13:13:22.797Z,27.66
2023-07-02T13:15:51.900Z,27.65
2023-07-02T13:18:19.864Z,27.58
2023-07-02T13:20:47.607Z,27.64
2023-07-02T13:23:15.186Z,27.60
2023-07-02T13:25:43.013Z,27.84
2023-07-02T13:28:10.599Z,28.07
2023-07-02T13:30:38.206Z,27.68
2023-07-02T13:33:05.969Z,27.47
2023-07-02T13:35:33.650Z,27.23
2023-07-02T13:38:01.346Z,27.29
2023-07-02T13:40:29.277Z,27.61
2023-07-02T13:42:57.339Z,27.85
2023-07-02T13:45:25.001Z,27.59
2023-07-02T13:47:52.776Z,27.14
2023-07-02T13:50:20.577Z,27.09
2023-07-02T13:52:48.558Z,26.88
2023-07-02T13:55:16.358Z,27.04
2023-07-02T13:57:44.283Z,26.94
2023-07-02T14:00:12.494Z,26.84
2023-07-02T14:02:40.250Z,27.21
2023-07-02T14:05:08.458Z,27.01
2023-07-02T14:07:36.372Z,26.88
2023-07-02T14:10:05.335Z,26.98
2023-07-02T14:12:33.372Z,27.39
2023-07-02T14:15:01.069Z,27.18
2023-07-02T14:17:31.100Z,27.25
2023-07-02T14:19:59.186Z,27.08
2023-07-02T14:22:26.833Z,27.29
2023-07-02T14:24:54.518Z,27.55
2023-07-02T14:27:22.237Z,27.61
2023-07-02T14:29:49.893Z,27.33
2023-07-02T14:32:18.307Z,27.12
2023-07-02T14:34:46.149Z,27.16
2023-07-02T14:37:13.970Z,27.42
2023-07-02T14:39:43.769Z,27.11
2023-07-02T14:42:15.676Z,27.19
2023-07-02T14:44:43.382Z,27.46
2023-07-02T14:47:11.098Z,27.60
2023-07-02T14:49:39.049Z,27.65
2023-07-02T14:52:07.174Z,27.66
2023-07-02T14:54:35.522Z,27.59
2023-07-02T14:57:03.299Z,27.49
2023-07-02T14:59:31.147Z,27.56
2023-07-02T15:01:58.773Z,27.63
2023-07-02T15:04:26.812Z,27.64
2023-07-02T15:06:54.577Z,27.73
2023-07-02T15:09:22.446Z,27.77
2023-07-02T15:11:50.244Z,27.78
2023-07-02T15:14:17.809Z,27.84
2023-07-02T15:16:45.599Z,27.79
2023-07-02T15:19:14.073Z,27.71
2023-07-02T15:21:41.805Z,27.54
2023-07-02T15:24:11.951Z,27.36
2023-07-02T15:26:41.217Z,27.37
2023-07-02T15:29:09.465Z,27.35
2023-07-02T15:31:42.098Z,26.98
2023-07-02T15:34:10.003Z,27.24
2023-07-02T15:36:38.710Z,27.14
2023-07-02T15:39:07.560Z,27.12
2023-07-02T15:41:35.829Z,27.12
2023-07-02T15:44:05.453Z,27.12
2023-07-02T15:46:38.506Z,27.00
2023-07-02T15:49:08.202Z,27.18
2023-07-02T15:51:38.151Z,27.09
2023-07-02T15:54:07.667Z,27.10
2023-07-02T15:56:36.284Z,26.99
2023-07-02T15:59:06.624Z,27.02
2023-07-02T16:01:38.223Z,26.90
2023-07-02T16:04:10.931Z,26.92
2023-07-02T16:06:38.828Z,26.78
2023-07-02T16:09:09.319Z,26.40
2023-07-02T16:11:43.105Z,26.36
2023-07-02T16:14:13.430Z,26.65
2023-07-02T16:16:43.087Z,26.55
2023-07-02T16:19:12.666Z,26.67
2023-07-02T16:21:41.792Z,26.23
2023-07-02T16:24:19.101Z,26.36
2023-07-02T16:26:47.493Z,26.14
2023-07-02T16:29:16.343Z,26.03
2023-07-02T16:31:55.536Z,26.23
2023-07-02T16:34:24.187Z,25.80
2023-07-02T16:36:53.057Z,25.67
2023-07-02T16:39:21.753Z,25.56
2023-07-02T16:41:50.625Z,25.48
2023-07-02T16:44:24.392Z,25.52
2023-07-02T16:46:54.733Z,25.21
2023-07-02T16:49:26.018Z,25.29
2023-07-02T16:51:54.521Z,25.08
2023-07-02T16:54:23.879Z,25.20
2023-07-02T16:56:59.248Z,25.21
2023-07-02T16:59:29.065Z,24.78
2023-07-02T17:02:00.518Z,24.43
2023-07-02T17:04:29.118Z,24.32
2023-07-02T17:06:59.253Z,24.12
2023-07-02T17:09:35.453Z,24.61
2023-07-02T17:12:06.037Z,24.88
2023-07-02T17:14:37.831Z,25.17
2023-07-02T17:17:12.052Z,25.54
2023-07-02T17:19:42.216Z,25.60
2023-07-02T17:22:13.211Z,25.51
2023-07-02T17:24:43.356Z,25.41
2023-07-02T17:27:12.226Z,25.39
2023-07-02T17:29:40.146Z,25.38
2023-07-02T17:32:09.911Z,25.47
2023-07-02T17:34:38.871Z,25.37
2023-07-02T17:37:09.544Z,25.35
2023-07-02T17:39:38.875Z,25.32
2023-07-02T17:42:06.948Z,25.24
2023-07-02T17:44:37.990Z,25.38
2023-07-02T17:47:12.416Z,25.42
2023-07-02T17:49:41.980Z,25.30
2023-07-02T17:52:12.247Z,25.22
2023-07-02T17:54:43.528Z,25.11
2023-07-02T17:57:12.730Z,25.02
2023-07-02T17:59:40.691Z,25.01
2023-07-02T18:02:10.338Z,25.01
2023-07-02T18:04:39.166Z,24.93
2023-07-02T18:07:19.095Z,25.07
2023-07-02T18:09:49.724Z,24.92
2023-07-02T18:12:20.154Z,24.93
2023-07-02T18:14:48.442Z,24.88
2023-07-02T18:17:17.353Z,24.81
2023-07-02T18:19:45.221Z,24.78
2023-07-02T18:22:13.074Z,24.80
2023-07-02T18:24:42.740Z,24.90
2023-07-02T18:27:11.237Z,24.92
2023-07-02T18:29:39.578Z,24.92
2023-07-02T18:32:09.368Z,24.93
2023-07-02T18:34:40.300Z,24.93
2023-07-02T18:37:12.679Z,24.85
2023-07-02T18:39:42.038Z,24.87
2023-07-02T18:42:12.156Z,24.81
2023-07-02T18:44:40.936Z,24.77
2023-07-02T18:47:12.649Z,24.81
2023-07-02T18:49:41.498Z,24.72
2023-07-02T18:52:10.774Z,24.78
2023-07-02T18:54:38.763Z,24.72
2023-07-02T18:57:08.423Z,24.67
2023-07-02T18:59:36.614Z,24.68
2023-07-02T19:02:07.288Z,24.81
2023-07-02T19:04:35.776Z,24.66
2023-07-02T19:07:06.217Z,24.70
2023-07-02T19:09:38.891Z,24.75
2023-07-02T19:12:11.080Z,24.72
2023-07-02T19:14:41.992Z,24.66
2023-07-02T19:17:11.887Z,24.60
2023-07-02T19:19:42.491Z,24.60
2023-07-02T19:22:12.395Z,24.57
2023-07-02T19:24:40.890Z,24.54
2023-07-02T19:27:11.593Z,24.55
2023-07-02T19:29:39.296Z,24.41
2023-07-02T19:32:07.636Z,24.41
2023-07-02T19:34:35.450Z,24.41
2023-07-02T19:37:03.381Z,24.43
2023-07-02T19:39:31.871Z,24.44
2023-07-02T19:42:01.243Z,24.39
2023-07-02T19:44:28.994Z,24.41
2023-07-02T19:46:56.629Z,24.38
2023-07-02T19:49:24.279Z,24.42
2023-07-02T19:51:52.358Z,24.41
2023-07-02T19:54:20.733Z,24.37
2023-07-02T19:56:49.954Z,24.31
2023-07-02T19:59:18.502Z,24.29
2023-07-02T20:01:46.244Z,24.24
2023-07-02T20:04:22.511Z,24.43
2023-07-02T20:06:51.115Z,24.23
2023-07-02T20:09:19.052Z,24.10
2023-07-02T20:11:46.822Z,24.22
2023-07-02T20:14:16.305Z,24.24
2023-07-02T20:16:44.946Z,24.31
2023-07-02T20:19:12.580Z,24.31
2023-07-02T20:21:41.853Z,24.23
2023-07-02T20:24:09.491Z,24.30
2023-07-02T20:26:37.104Z,24.24
2023-07-02T20:29:05.144Z,24.15
2023-07-02T20:31:33.143Z,24.02
2023-07-02T20:34:04.166Z,23.95
2023-07-02T20:36:33.161Z,24.26
2023-07-02T20:39:00.779Z,24.27
2023-07-02T20:41:29.757Z,24.32
2023-07-02T20:44:04.789Z,24.29
2023-07-02T20:46:33.074Z,24.33
2023-07-02T20:49:00.770Z,24.44
2023-07-02T20:51:28.544Z,24.45
2023-07-02T20:53:56.315Z,24.51
2023-07-02T20:56:23.992Z,24.38
2023-07-02T20:58:52.106Z,24.26
2023-07-02T21:01:19.937Z,24.15
2023-07-02T21:03:47.734Z,24.08
2023-07-02T21:06:15.540Z,23.97
2023-07-02T21:08:43.132Z,23.76
2023-07-02T21:11:20.326Z,23.60
2023-07-02T21:13:58.956Z,23.60
2023-07-02T21:16:26.854Z,23.65
2023-07-02T21:18:54.488Z,23.64
2023-07-02T21:21:22.535Z,23.60
2023-07-02T21:23:50.056Z,23.57
2023-07-02T21:26:17.705Z,23.51
2023-07-02T21:28:45.329Z,23.50
2023-07-02T21:31:14.542Z,23.52
2023-07-02T21:33:42.264Z,23.44
2023-07-02T21:36:11.222Z,23.43
2023-07-02T21:38:40.745Z,23.52
2023-07-02T21:41:09.742Z,23.46
2023-07-02T21:43:38.042Z,23.42
2023-07-02T21:46:07.782Z,23.49
2023-07-02T21:48:35.595Z,23.39
2023-07-02T21:51:03.605Z,23.37
2023-07-02T21:53:31.258Z,23.37
2023-07-02T21:55:59.038Z,23.37
2023-07-02T21:58:27.148Z,23.29
2023-07-02T22:00:54.796Z,23.21
2023-07-02T22:03:22.563Z,23.16
2023-07-02T22:05:55.220Z,23.28
2023-07-02T22:08:23.236Z,23.02
2023-07-02T22:10:51.958Z,22.99
2023-07-02T22:13:20.679Z,22.93
2023-07-02T22:15:49.356Z,22.91
2023-07-02T22:18:19.210Z,22.82
2023-07-02T22:20:48.393Z,22.78
2023-07-02T22:23:16.079Z,22.68
2023-07-02T22:25:45.892Z,22.65
2023-07-02T22:28:13.837Z,22.58
2023-07-02T22:30:41.707Z,22.58
2023-07-02T22:33:09.302Z,22.56
2023-07-02T22:35:37.305Z,22.51
2023-07-02T22:38:05.068Z,22.49
2023-07-02T22:40:32.680Z,22.37
2023-07-02T22:43:00.397Z,22.41
2023-07-02T22:45:28.099Z,22.39
2023-07-02T22:47:56.035Z,22.36
2023-07-02T22:50:23.783Z,22.28
2023-07-02T22:52:51.788Z,22.25
2023-07-02T22:55:19.643Z,22.20
2023-07-02T22:57:48.641Z,22.24
2023-07-02T23:00:18.440Z,22.25
2023-07-02T23:02:47.696Z,22.16
2023-07-02T23:05:18.880Z,22.21
2023-07-02T23:07:47.851Z,22.16
2023-07-02T23:10:17.524Z,22.10
2023-07-02T23:12:49.708Z,22.20
2023-07-02T23:15:20.704Z,22.14
2023-07-02T23:17:55.201Z,22.14
2023-07-02T23:20:23.797Z,22.21
2023-07-02T23:22:52.352Z,22.12
2023-07-02T23:25:24.852Z,22.04
2023-07-02T23:28:04.056Z,22.01
2023-07-02T23:30:39.024Z,21.95
2023-07-02T23:33:11.793Z,21.99
2023-07-02T23:35:39.816Z,21.98
2023-07-02T23:38:08.242Z,22.05
2023-07-02T23:40:37.044Z,22.00
2023-07-02T23:43:05.453Z,22.00
2023-07-02T23:45:33.232Z,21.98
2023-07-02T23:48:01.897Z,21.85
2023-07-02T23:50:29.762Z,21.95
2023-07-02T23:52:57.558Z,21.93
2023-07-02T23:55:25.149Z,22.00
2023-07-02T23:57:52.903Z,21.94
